Du har inga inställningar för hoppväder.nu

Hoppväder.nu

Senast uppdaterat 23:52

UTC-tid

2019-10-20 kl. 21:52


Sol och måne

Solen går upp 8:02 och går ner 18:07 (beräknade cirkatider)
Nästa fullmåne blir om 23 dagar (2019-11-12)

METAR

ESNN (Sundsvall)
(32 minuter sedan)
ESNN 202120Z 33009KT 9999 FEW015 BKN021 BKN028 01/00 Q1016=



ESNK (Kramfors)
(32 minuter sedan)
ESNK 202120Z AUTO 33005KT 9999 SCT031/// OVC070/// 01/M02 Q1016 RESHUP RERA=



ESNO (Örnsköldsvik)
(32 minuter sedan)
ESNO 202120Z AUTO 34005KT 310V010 9999 OVC029/// M00/M03 Q1015=



ESNY (Söderhamn)
ESNY NIL=



ESNZ (Östersund)
(32 minuter sedan)
ESNZ 202120Z AUTO 15005KT 9999 SCT008/// OVC041/// M01/M02 Q1014=



TAF

ESNN (Sundsvall)
(262 minuter sedan)
ESNN 201730Z 2018/2022 32009KT 6000 -RASN BKN025 TEMPO 2018/2021 4000 BKN013=



ESNK (Kramfors)
ESNK



ESNO (Örnsköldsvik)
(262 minuter sedan)
ESNO 201730Z 2018/2022 01005KT 9000 -SN SCT010 BKN025 TEMPO 2018/2022 4000 BKN012=



ESNY (Söderhamn)
ESNY



ESNZ (Östersund)
(82 minuter sedan)
ESNZ 202030Z 2021/2023 10007KT 9999 BKN045=





Kodnycklar till TAF och METAR






LHP

(Sundsvall är område D1a i Sydöstra delen)





Spotting

Hur fungerar spotthjälpen och Vindkartan?

Markvind är ca 0 m/s.



Vindkartan

Senast uppdaterad 23:52




All data kommer från LFV.se